createdAt,value
2022-08-05T00:01:01.000Z,77.23
2022-08-05T00:02:07.774Z,77.43
2022-08-05T00:02:59.445Z,77.73
2022-08-05T00:03:58.426Z,77.63
2022-08-05T00:04:58.432Z,77.63
2022-08-05T00:06:05.554Z,77.73
2022-08-05T00:06:59.411Z,78.17
2022-08-05T00:08:00.260Z,78.27
2022-08-05T00:08:58.457Z,78.56
2022-08-05T00:09:58.396Z,78.86
2022-08-05T00:11:00.957Z,78.97
2022-08-05T00:11:59.964Z,78.86
2022-08-05T00:12:58.378Z,78.97
2022-08-05T00:13:58.368Z,79.27
2022-08-05T00:14:58.380Z,79.36
2022-08-05T00:16:00.344Z,79.46
2022-08-05T00:16:58.369Z,79.46
2022-08-05T00:17:58.333Z,79.46
2022-08-05T00:18:58.323Z,79.96
2022-08-05T00:20:02.678Z,79.46
2022-08-05T00:20:58.330Z,79.36
2022-08-05T00:21:58.314Z,79.66
2022-08-05T00:23:02.315Z,79.36
2022-08-05T00:24:10.723Z,79.66
2022-08-05T00:24:59.332Z,79.36
2022-08-05T00:25:58.324Z,79.80
2022-08-05T00:26:58.680Z,79.80
2022-08-05T00:27:58.270Z,79.60
2022-08-05T00:28:58.266Z,79.80
2022-08-05T00:29:58.277Z,79.50
2022-08-05T00:30:58.285Z,79.00
2022-08-05T00:32:13.476Z,79.30
2022-08-05T00:32:59.228Z,79.20
2022-08-05T00:34:53.819Z,79.70
2022-08-05T00:35:06.049Z,80.10
2022-08-05T00:36:16.415Z,81.34
2022-08-05T00:37:11.496Z,81.73
2022-08-05T00:37:59.215Z,83.03
2022-08-05T00:38:59.401Z,82.67
2022-08-05T00:39:59.315Z,82.81
2022-08-05T00:40:58.176Z,83.07
2022-08-05T00:41:58.191Z,83.21
2022-08-05T00:42:58.188Z,83.37
2022-08-05T00:43:58.221Z,83.91
2022-08-05T00:44:58.162Z,84.21
2022-08-05T00:45:58.132Z,82.91
2022-08-05T00:47:04.237Z,83.21
2022-08-05T00:48:05.716Z,82.51
2022-08-05T00:48:58.116Z,83.61
2022-08-05T00:49:58.130Z,83.01
2022-08-05T00:50:58.103Z,83.31
2022-08-05T00:51:58.122Z,83.21
2022-08-05T00:52:58.088Z,82.71
2022-08-05T00:54:02.255Z,83.27
2022-08-05T00:54:58.318Z,82.91
2022-08-05T00:55:58.059Z,83.35
2022-08-05T00:56:58.073Z,83.25
2022-08-05T00:57:59.335Z,82.85
2022-08-05T00:58:58.075Z,83.21
2022-08-05T00:59:58.026Z,82.21
2022-08-05T01:00:58.098Z,82.05
2022-08-05T01:01:58.135Z,82.55
2022-08-05T01:02:58.040Z,80.51
2022-08-05T01:03:58.072Z,80.82
2022-08-05T01:04:58.009Z,81.35
2022-08-05T01:05:57.995Z,80.91
2022-08-05T01:06:58.020Z,80.62
2022-08-05T01:08:30.731Z,81.21
2022-08-05T01:08:58.974Z,81.01
2022-08-05T01:09:57.980Z,80.82
2022-08-05T01:10:58.035Z,81.01
2022-08-05T01:12:01.859Z,80.32
2022-08-05T01:13:05.399Z,81.51
2022-08-05T01:13:59.885Z,81.31
2022-08-05T01:14:57.923Z,81.35
2022-08-05T01:15:58.158Z,80.71
2022-08-05T01:16:57.940Z,81.21
2022-08-05T01:17:57.956Z,81.31
2022-08-05T01:18:57.892Z,81.31
2022-08-05T01:20:03.002Z,82.25
2022-08-05T01:20:58.880Z,82.65
2022-08-05T01:21:57.876Z,83.05
2022-08-05T01:22:57.893Z,83.15
2022-08-05T01:23:57.859Z,83.05
2022-08-05T01:24:57.854Z,82.95
2022-08-05T01:25:57.848Z,82.85
2022-08-05T01:26:57.844Z,82.95
2022-08-05T01:27:57.890Z,82.71
2022-08-05T01:28:57.831Z,82.35
2022-08-05T01:29:58.819Z,82.41
2022-08-05T01:30:57.816Z,82.61
2022-08-05T01:31:57.812Z,82.41
2022-08-05T01:32:57.815Z,83.21
2022-08-05T01:33:57.803Z,83.11
2022-08-05T01:34:57.783Z,83.15
2022-08-05T01:35:57.799Z,83.81
2022-08-05T01:37:00.646Z,84.55
2022-08-05T01:37:57.762Z,84.15
2022-08-05T01:39:01.120Z,85.35
2022-08-05T01:39:59.221Z,85.75
2022-08-05T01:40:57.741Z,86.49
2022-08-05T01:41:57.736Z,85.99
2022-08-05T01:42:57.729Z,87.73
2022-08-05T01:43:57.751Z,88.18
2022-08-05T01:44:59.212Z,89.07
2022-08-05T01:45:57.751Z,89.37
2022-08-05T01:46:57.696Z,90.67
2022-08-05T01:47:57.703Z,90.67
2022-08-05T01:48:57.706Z,90.28
2022-08-05T01:50:02.057Z,90.48
2022-08-05T01:51:00.132Z,91.42
2022-08-05T01:51:58.919Z,91.92
2022-08-05T01:52:57.679Z,92.32
2022-08-05T01:53:58.819Z,93.52
2022-08-05T01:54:57.656Z,93.73
2022-08-05T01:55:57.629Z,92.52
2022-08-05T01:58:11.776Z,94.12
2022-08-05T01:58:13.784Z,95.23
2022-08-05T01:58:58.691Z,94.02
2022-08-05T01:59:57.603Z,93.32
2022-08-05T02:00:57.596Z,94.53
2022-08-05T02:01:57.866Z,94.43
2022-08-05T02:02:57.583Z,95.43
2022-08-05T02:03:57.626Z,96.97
2022-08-05T02:04:57.614Z,96.82
2022-08-05T02:05:59.705Z,97.67
2022-08-05T02:06:57.588Z,98.32
2022-08-05T02:08:01.178Z,97.58
2022-08-05T02:08:58.352Z,96.77
2022-08-05T02:09:57.561Z,96.88
2022-08-05T02:10:57.536Z,96.67
2022-08-05T02:11:57.521Z,97.17
2022-08-05T02:12:57.592Z,97.08
2022-08-05T02:13:57.517Z,96.77
2022-08-05T02:14:57.531Z,97.08
2022-08-05T02:15:57.503Z,96.97
2022-08-05T02:16:57.608Z,97.38
2022-08-05T02:18:27.998Z,96.97
2022-08-05T02:18:58.489Z,96.88
2022-08-05T02:19:57.490Z,96.67
2022-08-05T02:20:58.702Z,96.77
2022-08-05T02:21:57.457Z,96.67
2022-08-05T02:22:57.452Z,96.47
2022-08-05T02:23:57.440Z,96.77
2022-08-05T02:24:57.454Z,96.77
2022-08-05T02:25:57.426Z,97.72
2022-08-05T02:26:57.441Z,97.82
2022-08-05T02:27:59.595Z,98.02
2022-08-05T02:28:58.335Z,98.32
2022-08-05T02:29:58.413Z,98.17
2022-08-05T02:30:57.387Z,98.17
2022-08-05T02:31:57.384Z,99.07
2022-08-05T02:32:57.386Z,98.87
2022-08-05T02:33:58.067Z,98.57
2022-08-05T02:34:57.638Z,98.87
2022-08-05T02:35:59.157Z,99.27
2022-08-05T02:36:58.353Z,99.37
2022-08-05T02:37:58.982Z,99.37
2022-08-05T02:38:57.733Z,98.87
2022-08-05T02:39:57.332Z,99.48
2022-08-05T02:40:58.380Z,99.27
2022-08-05T02:42:01.126Z,99.77
2022-08-05T02:42:57.316Z,99.42
2022-08-05T02:44:02.651Z,99.48
2022-08-05T02:44:58.328Z,99.37
2022-08-05T02:45:57.324Z,99.42
2022-08-05T02:47:00.955Z,99.68
2022-08-05T02:48:06.792Z,99.27
2022-08-05T02:48:58.271Z,99.99
2022-08-05T02:49:57.268Z,99.99
2022-08-05T02:50:57.239Z,99.99
2022-08-05T02:52:02.841Z,99.77
2022-08-05T02:52:58.252Z,99.87
2022-08-05T02:54:03.218Z,99.48
2022-08-05T02:54:58.239Z,99.87
2022-08-05T02:56:01.816Z,99.87
2022-08-05T02:56:58.258Z,99.99
2022-08-05T02:58:20.088Z,99.99
2022-08-05T02:58:58.201Z,99.82
2022-08-05T02:59:57.188Z,99.42
2022-08-05T03:00:57.238Z,99.57
2022-08-05T03:01:57.249Z,99.52
2022-08-05T03:02:57.216Z,99.68
2022-08-05T03:04:04.329Z,99.37
2022-08-05T03:04:58.170Z,99.52
2022-08-05T03:06:56.305Z,99.72
2022-08-05T03:06:59.041Z,99.99
2022-08-05T03:08:06.749Z,99.98
2022-08-05T03:08:58.253Z,99.68
2022-08-05T03:09:57.110Z,99.99
2022-08-05T03:11:53.256Z,99.22
2022-08-05T03:11:58.427Z,99.42
2022-08-05T03:13:51.561Z,99.42
2022-08-05T03:14:46.199Z,99.99
2022-08-05T03:15:44.541Z,99.99
2022-08-05T03:16:44.536Z,99.99
2022-08-05T03:17:44.739Z,99.99
2022-08-05T03:18:44.625Z,99.99
2022-08-05T03:19:45.813Z,99.99
2022-08-05T03:20:48.757Z,99.99
2022-08-05T03:21:48.985Z,99.99
2022-08-05T03:22:49.783Z,99.99
2022-08-05T03:23:45.740Z,99.99
2022-08-05T03:24:44.479Z,99.99
2022-08-05T03:26:04.683Z,99.99
2022-08-05T03:26:49.336Z,99.99
2022-08-05T03:27:59.541Z,99.99
2022-08-05T03:28:45.529Z,99.99
2022-08-05T03:30:08.350Z,99.99
2022-08-05T03:30:45.435Z,99.99
2022-08-05T03:31:55.791Z,99.99
2022-08-05T03:32:45.413Z,99.99
2022-08-05T03:33:53.044Z,99.99
2022-08-05T03:34:51.164Z,99.99
2022-08-05T03:35:44.401Z,99.99
2022-08-05T03:36:44.405Z,99.99
2022-08-05T03:37:45.907Z,99.99
2022-08-05T03:38:44.390Z,99.99
2022-08-05T03:39:58.551Z,99.99
2022-08-05T03:40:48.522Z,99.99
2022-08-05T03:41:46.701Z,99.99
2022-08-05T03:42:51.996Z,99.99
2022-08-05T03:44:08.853Z,99.99
2022-08-05T03:44:45.330Z,99.99
2022-08-05T03:45:58.192Z,99.99
2022-08-05T03:46:45.332Z,99.99
2022-08-05T03:47:44.306Z,99.99
2022-08-05T03:48:45.349Z,99.99
2022-08-05T03:49:51.425Z,99.99
2022-08-05T03:50:45.458Z,99.99
2022-08-05T03:52:48.602Z,99.99
2022-08-05T03:55:34.524Z,99.99
2022-08-05T03:55:50.441Z,99.99
2022-08-05T03:55:52.749Z,99.99
2022-08-05T03:56:06.228Z,99.99
2022-08-05T03:56:46.410Z,99.99
2022-08-05T03:57:44.544Z,99.99
2022-08-05T03:58:44.762Z,99.99
2022-08-05T03:59:47.011Z,99.99
2022-08-05T04:00:51.305Z,99.99
2022-08-05T04:01:45.373Z,99.99
2022-08-05T04:02:45.271Z,99.99
2022-08-05T04:04:10.218Z,99.99
2022-08-05T04:04:45.180Z,99.99
2022-08-05T04:05:44.185Z,99.99
2022-08-05T04:06:47.939Z,99.99
2022-08-05T04:07:58.725Z,99.99
2022-08-05T04:08:45.182Z,99.99
2022-08-05T04:09:53.489Z,99.99
2022-08-05T04:10:45.156Z,99.99
2022-08-05T04:11:50.510Z,99.99
2022-08-05T04:12:44.084Z,99.99
2022-08-05T04:13:50.246Z,99.99
2022-08-05T04:14:45.106Z,99.99
2022-08-05T04:15:52.821Z,99.99
2022-08-05T04:16:45.098Z,99.99
2022-08-05T04:17:56.068Z,99.99
2022-08-05T04:18:45.118Z,99.99
2022-08-05T04:19:44.083Z,99.37
2022-08-05T04:20:44.077Z,99.62
2022-08-05T04:22:10.164Z,99.32
2022-08-05T04:22:45.101Z,99.02
2022-08-05T04:24:04.738Z,98.97
2022-08-05T04:24:52.429Z,99.99
2022-08-05T04:26:00.627Z,99.62
2022-08-05T04:26:45.016Z,99.52
2022-08-05T04:27:57.259Z,99.99
2022-08-05T04:28:50.794Z,99.99
2022-08-05T04:29:45.038Z,99.99
2022-08-05T04:30:44.008Z,99.72
2022-08-05T04:31:43.989Z,99.72
2022-08-05T04:32:43.974Z,99.99
2022-08-05T04:34:17.041Z,99.82
2022-08-05T04:34:44.955Z,99.99
2022-08-05T04:36:09.511Z,99.99
2022-08-05T04:36:50.046Z,99.99
2022-08-05T04:38:01.208Z,99.99
2022-08-05T04:38:45.092Z,99.99
2022-08-05T04:39:44.015Z,99.99
2022-08-05T04:40:47.916Z,99.99
2022-08-05T04:41:44.914Z,99.99
2022-08-05T04:42:43.901Z,99.99
2022-08-05T04:43:48.139Z,99.99
2022-08-05T04:44:44.933Z,99.99
2022-08-05T04:45:48.224Z,99.99
2022-08-05T04:46:43.871Z,99.99
2022-08-05T04:47:47.198Z,99.99
2022-08-05T04:48:43.867Z,99.99
2022-08-05T04:50:02.701Z,99.99
2022-08-05T04:51:01.737Z,99.99
2022-08-05T04:51:44.841Z,99.99
2022-08-05T04:52:43.815Z,99.42
2022-08-05T04:53:43.838Z,99.99
2022-08-05T04:54:43.819Z,99.99
2022-08-05T04:56:14.254Z,99.99
2022-08-05T04:56:44.805Z,99.99
2022-08-05T04:57:47.955Z,99.99
2022-08-05T04:58:44.802Z,99.98
2022-08-05T04:59:43.775Z,99.77
2022-08-05T05:00:43.826Z,99.37
2022-08-05T05:02:07.624Z,99.48
2022-08-05T05:02:44.805Z,99.27
2022-08-05T05:03:43.735Z,97.62
2022-08-05T05:04:47.633Z,98.22
2022-08-05T05:06:38.981Z,98.22
2022-08-05T05:06:51.919Z,97.82
2022-08-05T05:07:45.657Z,97.82
2022-08-05T05:08:44.725Z,97.32
2022-08-05T05:09:44.704Z,97.28
2022-08-05T05:10:54.778Z,98.08
2022-08-05T05:11:54.180Z,98.38
2022-08-05T05:12:44.672Z,97.72
2022-08-05T05:13:44.653Z,98.07
2022-08-05T05:14:50.649Z,99.22
2022-08-05T05:15:56.404Z,99.99
2022-08-05T05:16:44.660Z,99.99
2022-08-05T05:17:56.179Z,99.99
2022-08-05T05:19:02.489Z,99.99
2022-08-05T05:19:47.425Z,99.99
2022-08-05T05:20:43.631Z,99.57
2022-08-05T05:21:43.616Z,99.48
2022-08-05T05:22:43.937Z,99.99
2022-08-05T05:24:02.899Z,99.99
2022-08-05T05:24:57.510Z,99.99
2022-08-05T05:25:44.580Z,99.99
2022-08-05T05:26:46.515Z,99.99
2022-08-05T05:27:45.460Z,99.99
2022-08-05T05:28:45.065Z,99.99
2022-08-05T05:30:04.445Z,99.99
2022-08-05T05:30:44.562Z,99.99
2022-08-05T05:31:46.370Z,99.52
2022-08-05T05:32:43.527Z,98.82
2022-08-05T05:34:01.638Z,99.22
2022-08-05T05:34:44.535Z,99.08
2022-08-05T05:35:43.497Z,98.63
2022-08-05T05:36:43.501Z,98.63
2022-08-05T05:38:00.019Z,98.47
2022-08-05T05:38:44.583Z,99.77
2022-08-05T05:39:43.527Z,99.99
2022-08-05T05:40:50.120Z,99.99
2022-08-05T05:41:45.468Z,99.87
2022-08-05T05:42:47.070Z,99.99
2022-08-05T05:43:58.538Z,99.99
2022-08-05T05:44:45.932Z,99.99
2022-08-05T05:45:48.404Z,99.99
2022-08-05T05:46:44.428Z,99.99
2022-08-05T05:48:06.575Z,99.99
2022-08-05T05:48:44.765Z,99.99
2022-08-05T05:49:43.462Z,99.99
2022-08-05T05:50:44.671Z,99.99
2022-08-05T05:51:49.957Z,99.99
2022-08-05T05:52:46.617Z,99.99
2022-08-05T05:53:54.081Z,99.99
2022-08-05T05:54:50.816Z,99.99
2022-08-05T05:55:51.769Z,99.99
2022-08-05T05:56:44.363Z,99.99
2022-08-05T05:57:52.369Z,99.83
2022-08-05T05:58:44.381Z,98.98
2022-08-05T05:59:43.544Z,99.48
2022-08-05T06:00:46.422Z,98.08
2022-08-05T06:01:57.767Z,97.58
2022-08-05T06:02:44.324Z,98.28
2022-08-05T06:04:02.194Z,97.97
2022-08-05T06:04:44.354Z,98.38
2022-08-05T06:05:44.375Z,98.08
2022-08-05T06:06:47.339Z,98.28
2022-08-05T06:07:43.272Z,98.43
2022-08-05T06:08:44.300Z,99.33
2022-08-05T06:10:00.034Z,99.18
2022-08-05T06:10:52.566Z,99.28
2022-08-05T06:11:44.292Z,99.18
2022-08-05T06:12:44.244Z,98.98
2022-08-05T06:13:50.419Z,99.53
2022-08-05T06:14:44.223Z,98.63
2022-08-05T06:16:28.928Z,98.08
2022-08-05T06:16:44.233Z,97.38
2022-08-05T06:17:52.692Z,96.94
2022-08-05T06:18:44.225Z,97.03
2022-08-05T06:19:43.208Z,96.49
2022-08-05T06:20:47.715Z,94.89
2022-08-05T06:21:49.641Z,94.73
2022-08-05T06:22:43.168Z,96.18
2022-08-05T06:23:43.762Z,95.78
2022-08-05T06:24:48.371Z,95.28
2022-08-05T06:26:13.233Z,95.78
2022-08-05T06:26:51.702Z,96.23
2022-08-05T06:28:11.468Z,95.64
2022-08-05T06:28:44.151Z,95.04
2022-08-05T06:29:46.920Z,95.09
2022-08-05T06:30:43.117Z,94.54
2022-08-05T06:31:43.148Z,93.65
2022-08-05T06:32:43.101Z,93.59
2022-08-05T06:34:07.194Z,94.65
2022-08-05T06:34:44.130Z,94.74
2022-08-05T06:36:07.270Z,93.80
2022-08-05T06:36:57.292Z,93.65
2022-08-05T06:37:58.038Z,93.70
2022-08-05T06:38:46.996Z,93.55
2022-08-05T06:39:43.036Z,93.24
2022-08-05T06:40:44.441Z,93.79
2022-08-05T06:41:43.039Z,93.29
2022-08-05T06:42:43.038Z,93.59
2022-08-05T06:43:58.328Z,93.79
2022-08-05T06:44:44.000Z,94.65
2022-08-05T06:46:04.164Z,94.45
2022-08-05T06:46:44.123Z,93.89
2022-08-05T06:48:36.061Z,95.59
2022-08-05T06:48:55.852Z,95.29
2022-08-05T06:50:01.222Z,95.69
2022-08-05T06:50:43.965Z,94.73
2022-08-05T06:51:44.000Z,96.04
2022-08-05T06:52:42.941Z,94.69
2022-08-05T06:53:43.932Z,95.54
2022-08-05T06:54:43.921Z,95.59
2022-08-05T06:55:43.944Z,95.09
2022-08-05T06:56:54.923Z,94.34
2022-08-05T06:58:03.003Z,94.99
2022-08-05T06:58:44.097Z,94.29
2022-08-05T06:59:48.500Z,94.49
2022-08-05T07:00:44.002Z,95.09
2022-08-05T07:01:44.009Z,95.59
2022-08-05T07:02:42.868Z,95.59
2022-08-05T07:03:42.868Z,94.29
2022-08-05T07:04:42.854Z,94.69
2022-08-05T07:05:42.882Z,94.79
2022-08-05T07:06:42.846Z,94.09
2022-08-05T07:07:43.889Z,93.59
2022-08-05T07:08:42.847Z,93.49
2022-08-05T07:09:43.257Z,94.23
2022-08-05T07:10:52.296Z,95.09
2022-08-05T07:11:49.444Z,93.89
2022-08-05T07:12:43.812Z,95.19
2022-08-05T07:13:59.321Z,94.99
2022-08-05T07:14:43.806Z,94.09
2022-08-05T07:16:01.929Z,93.29
2022-08-05T07:17:57.181Z,93.74
2022-08-05T07:18:00.013Z,93.44
2022-08-05T07:18:47.952Z,93.35
2022-08-05T07:20:31.226Z,92.55
2022-08-05T07:20:44.734Z,92.55
2022-08-05T07:22:00.000Z,91.75
2022-08-05T07:22:43.739Z,91.95
2022-08-05T07:23:49.857Z,91.90
2022-08-05T07:24:52.481Z,91.71
2022-08-05T07:25:55.385Z,91.49
2022-08-05T07:26:43.691Z,92.69
2022-08-05T07:27:58.605Z,93.79
2022-08-05T07:28:43.767Z,94.49
2022-08-05T07:30:27.725Z,92.99
2022-08-05T07:30:43.673Z,93.69
2022-08-05T07:31:54.956Z,93.29
2022-08-05T07:32:43.635Z,93.54
2022-08-05T07:33:42.644Z,93.93
2022-08-05T07:34:42.770Z,94.29
2022-08-05T07:36:02.939Z,94.59
2022-08-05T07:36:43.613Z,92.05
2022-08-05T07:37:42.609Z,92.14
2022-08-05T07:38:44.283Z,92.40
2022-08-05T07:40:04.088Z,91.10
2022-08-05T07:40:44.517Z,90.11
2022-08-05T07:42:13.277Z,91.85
2022-08-05T07:42:44.034Z,91.79
2022-08-05T07:43:42.583Z,91.39
2022-08-05T07:44:42.621Z,91.75
2022-08-05T07:45:57.613Z,91.85
2022-08-05T07:46:45.956Z,91.25
2022-08-05T07:47:43.539Z,90.61
2022-08-05T07:49:01.422Z,89.96
2022-08-05T07:49:54.151Z,90.06
2022-08-05T07:50:43.528Z,90.26
2022-08-05T07:51:52.954Z,89.32
2022-08-05T07:52:43.507Z,89.62
2022-08-05T07:53:50.494Z,90.08
2022-08-05T07:54:49.311Z,88.88
2022-08-05T07:56:05.004Z,87.62
2022-08-05T07:57:02.335Z,88.62
2022-08-05T07:57:58.740Z,88.82
2022-08-05T07:58:57.691Z,88.42
2022-08-05T07:59:43.458Z,87.88
2022-08-05T08:00:42.557Z,87.54
2022-08-05T08:01:51.962Z,87.58
2022-08-05T08:03:14.270Z,87.66
2022-08-05T08:03:44.500Z,90.41
2022-08-05T08:04:42.415Z,89.81
2022-08-05T08:05:47.278Z,90.30
2022-08-05T08:06:44.479Z,90.50
2022-08-05T08:07:59.235Z,91.16
2022-08-05T08:08:43.418Z,89.40
2022-08-05T08:09:42.398Z,89.56
2022-08-05T08:10:42.382Z,88.92
2022-08-05T08:11:49.513Z,88.13
2022-08-05T08:12:49.579Z,86.50
2022-08-05T08:13:49.504Z,85.50
2022-08-05T08:14:46.847Z,83.71
2022-08-05T08:16:49.693Z,83.63
2022-08-05T08:16:50.872Z,83.00
2022-08-05T08:17:46.177Z,82.57
2022-08-05T08:18:43.343Z,83.27
2022-08-05T08:20:42.704Z,83.61
2022-08-05T08:21:02.241Z,87.30
2022-08-05T08:21:43.307Z,85.41
2022-08-05T08:22:42.314Z,85.86
2022-08-05T08:24:01.239Z,84.77
2022-08-05T08:24:51.365Z,85.64
2022-08-05T08:25:59.732Z,87.73
2022-08-05T08:26:43.269Z,87.42
2022-08-05T08:27:47.321Z,87.46
2022-08-05T08:28:59.186Z,88.26
2022-08-05T08:30:04.078Z,90.30
2022-08-05T08:30:47.500Z,88.76
2022-08-05T08:31:42.222Z,88.21
2022-08-05T08:32:42.225Z,88.67
2022-08-05T08:33:42.220Z,86.93
2022-08-05T08:34:42.207Z,87.28
2022-08-05T08:35:52.993Z,85.85
2022-08-05T08:36:50.468Z,86.04
2022-08-05T08:37:45.143Z,86.79
2022-08-05T08:38:42.180Z,88.38
2022-08-05T08:39:49.427Z,87.38
2022-08-05T08:40:46.655Z,87.08
2022-08-05T08:41:51.324Z,88.18
2022-08-05T08:42:50.904Z,88.82
2022-08-05T08:45:18.433Z,88.78
2022-08-05T08:45:24.182Z,86.60
2022-08-05T08:45:43.157Z,86.94
2022-08-05T08:46:42.134Z,85.64
2022-08-05T08:48:05.677Z,86.24
2022-08-05T08:49:07.824Z,86.84
2022-08-05T08:50:12.823Z,86.24
2022-08-05T08:51:03.296Z,84.25
2022-08-05T08:52:03.820Z,85.21
2022-08-05T08:52:43.080Z,85.06
2022-08-05T08:53:45.080Z,85.68
2022-08-05T08:54:42.107Z,82.95
2022-08-05T08:56:04.047Z,82.18
2022-08-05T08:56:47.917Z,81.34
2022-08-05T08:57:57.788Z,80.93
2022-08-05T08:58:47.677Z,84.13
2022-08-05T08:59:47.165Z,83.23
2022-08-05T09:00:42.077Z,85.57
2022-08-05T09:01:42.552Z,84.37
2022-08-05T09:02:42.001Z,83.21
2022-08-05T09:03:45.193Z,85.41
2022-08-05T09:04:58.578Z,85.71
2022-08-05T09:06:07.572Z,85.94
2022-08-05T09:06:43.004Z,85.94
2022-08-05T09:07:56.942Z,85.94
2022-08-05T09:08:42.968Z,87.14
2022-08-05T09:09:41.955Z,87.10
2022-08-05T09:10:41.931Z,84.86
2022-08-05T09:11:51.202Z,85.46
2022-08-05T09:12:42.941Z,84.07
2022-08-05T09:14:09.116Z,84.97
2022-08-05T09:14:59.202Z,83.77
2022-08-05T09:15:42.936Z,85.46
2022-08-05T09:16:41.901Z,83.91
2022-08-05T09:17:49.400Z,85.05
2022-08-05T09:18:43.911Z,85.25
2022-08-05T09:19:54.984Z,85.74
2022-08-05T09:20:42.863Z,85.71
2022-08-05T09:22:30.837Z,84.21
2022-08-05T09:22:42.906Z,83.71
2022-08-05T09:23:43.833Z,84.56
2022-08-05T09:24:41.845Z,83.73
2022-08-05T09:26:01.561Z,84.43
2022-08-05T09:26:43.742Z,82.89
2022-08-05T09:28:05.427Z,82.50
2022-08-05T09:28:42.879Z,80.07
2022-08-05T09:29:47.517Z,80.17
2022-08-05T09:30:41.821Z,80.03
2022-08-05T09:32:40.147Z,79.10
2022-08-05T09:32:46.368Z,78.53
2022-08-05T09:33:42.772Z,79.12
2022-08-05T09:34:41.784Z,78.63
2022-08-05T09:35:41.761Z,76.54
2022-08-05T09:36:54.167Z,78.33
2022-08-05T09:38:17.763Z,76.44
2022-08-05T09:38:42.776Z,76.70
2022-08-05T09:39:52.069Z,75.71
2022-08-05T09:40:44.587Z,75.18
2022-08-05T09:41:42.732Z,73.95
2022-08-05T09:42:42.715Z,77.29
2022-08-05T09:43:42.769Z,78.76
2022-08-05T09:44:42.695Z,79.03
2022-08-05T09:46:07.238Z,78.30
2022-08-05T09:46:51.801Z,78.50
2022-08-05T09:47:55.060Z,78.70
2022-08-05T09:48:42.702Z,78.50
2022-08-05T09:50:00.737Z,77.37
2022-08-05T09:50:44.585Z,79.03
2022-08-05T09:51:41.656Z,78.86
2022-08-05T09:52:44.922Z,78.06
2022-08-05T09:53:54.655Z,76.38
2022-08-05T09:54:42.647Z,77.44
2022-08-05T09:55:58.616Z,78.39
2022-08-05T09:56:51.756Z,74.76
2022-08-05T09:57:43.224Z,76.84
2022-08-05T09:58:42.203Z,76.84
2022-08-05T09:59:41.587Z,75.38
2022-08-05T10:00:41.591Z,76.87
2022-08-05T10:01:41.596Z,77.21
2022-08-05T10:02:41.615Z,79.73
2022-08-05T10:03:56.846Z,75.29
2022-08-05T10:04:42.558Z,76.18
2022-08-05T10:05:41.553Z,76.44
2022-08-05T10:06:49.969Z,75.05
2022-08-05T10:08:35.288Z,74.85
2022-08-05T10:08:42.619Z,74.65
2022-08-05T10:09:45.384Z,74.09
2022-08-05T10:10:41.538Z,74.39
2022-08-05T10:11:41.555Z,74.39
2022-08-05T10:12:49.306Z,75.88
2022-08-05T10:13:45.714Z,75.15
2022-08-05T10:14:41.496Z,74.29
2022-08-05T10:15:41.516Z,73.93
2022-08-05T10:16:52.454Z,73.10
2022-08-05T10:17:47.328Z,72.03
2022-08-05T10:18:43.447Z,71.80
2022-08-05T10:20:04.058Z,70.74
2022-08-05T10:20:42.446Z,70.01
2022-08-05T10:21:41.432Z,71.50
2022-08-05T10:22:43.056Z,71.73
2022-08-05T10:23:59.557Z,69.82
2022-08-05T10:24:42.413Z,71.27
2022-08-05T10:25:41.410Z,73.06
2022-08-05T10:26:48.995Z,74.02
2022-08-05T10:28:13.575Z,74.42
2022-08-05T10:28:42.499Z,71.11
2022-08-05T10:30:06.651Z,69.46
2022-08-05T10:32:47.243Z,69.65
2022-08-05T10:32:53.219Z,68.40
2022-08-05T10:32:54.223Z,70.78
2022-08-05T10:33:42.352Z,73.79
2022-08-05T10:34:41.465Z,74.26
2022-08-05T10:35:44.187Z,77.41
2022-08-05T10:36:42.348Z,76.44
2022-08-05T10:37:45.037Z,72.44
2022-08-05T10:38:44.987Z,72.80
2022-08-05T10:39:58.931Z,70.71
2022-08-05T10:40:43.630Z,69.13
2022-08-05T10:41:46.482Z,69.16
2022-08-05T10:42:43.751Z,67.08
2022-08-05T10:43:41.792Z,67.08
2022-08-05T10:44:41.956Z,67.28
2022-08-05T10:45:42.169Z,69.13
2022-08-05T10:46:41.307Z,71.14
2022-08-05T10:47:41.322Z,68.73
2022-08-05T10:48:56.426Z,70.25
2022-08-05T10:49:48.767Z,70.98
2022-08-05T10:50:41.233Z,70.78
2022-08-05T10:51:44.172Z,72.00
2022-08-05T10:52:46.924Z,71.47
2022-08-05T10:53:42.561Z,72.63
2022-08-05T10:54:46.936Z,72.24
2022-08-05T10:56:04.645Z,72.80
2022-08-05T10:56:42.260Z,70.88
2022-08-05T10:57:41.195Z,70.88
2022-08-05T10:58:48.830Z,70.31
2022-08-05T11:00:02.450Z,70.28
2022-08-05T11:00:44.023Z,69.20
2022-08-05T11:02:05.261Z,71.31
2022-08-05T11:02:43.712Z,72.40
2022-08-05T11:03:42.211Z,73.13
2022-08-05T11:04:41.143Z,71.94
2022-08-05T11:05:41.145Z,71.41
2022-08-05T11:06:41.133Z,71.21
2022-08-05T11:08:01.336Z,72.93
2022-08-05T11:08:42.121Z,72.00
2022-08-05T11:09:46.498Z,71.11
2022-08-05T11:10:50.472Z,72.50
2022-08-05T11:11:52.760Z,70.91
2022-08-05T11:12:42.170Z,71.61
2022-08-05T11:13:54.899Z,71.08
2022-08-05T11:15:01.406Z,71.41
2022-08-05T11:15:59.378Z,71.01
2022-08-05T11:16:56.171Z,70.51
2022-08-05T11:18:00.521Z,71.41
2022-08-05T11:18:46.958Z,71.08
2022-08-05T11:20:10.822Z,69.36
2022-08-05T11:20:44.343Z,68.70
2022-08-05T11:21:48.838Z,71.11
2022-08-05T11:22:42.290Z,70.62
2022-08-05T11:24:03.149Z,69.06
2022-08-05T11:24:42.014Z,69.20
2022-08-05T11:26:06.223Z,70.38
2022-08-05T11:26:43.326Z,70.45
2022-08-05T11:27:51.258Z,69.06
2022-08-05T11:28:42.052Z,70.25
2022-08-05T11:29:40.997Z,68.93
2022-08-05T11:30:40.967Z,68.57
2022-08-05T11:31:54.542Z,68.76
2022-08-05T11:32:41.957Z,70.48
2022-08-05T11:33:46.260Z,70.84
2022-08-05T11:34:51.575Z,69.29
2022-08-05T11:36:04.436Z,69.09
2022-08-05T11:36:42.972Z,68.86
2022-08-05T11:38:26.220Z,67.91
2022-08-05T11:38:45.983Z,67.57
2022-08-05T11:39:41.965Z,68.63
2022-08-05T11:40:41.895Z,68.43
2022-08-05T11:42:01.158Z,67.64
2022-08-05T11:42:41.915Z,68.96
2022-08-05T11:44:06.418Z,68.53
2022-08-05T11:44:53.658Z,67.24
2022-08-05T11:46:15.293Z,66.88
2022-08-05T11:46:58.178Z,64.97
2022-08-05T11:47:49.999Z,65.86
2022-08-05T11:48:41.857Z,66.35
2022-08-05T11:49:42.985Z,67.50
2022-08-05T11:50:40.871Z,67.87
2022-08-05T11:51:43.971Z,67.08
2022-08-05T11:52:43.824Z,66.98
2022-08-05T11:53:41.946Z,66.09
2022-08-05T11:54:41.374Z,68.40
2022-08-05T11:55:40.820Z,66.71
2022-08-05T11:56:41.348Z,68.63
2022-08-05T11:58:10.254Z,68.24
2022-08-05T11:58:41.792Z,68.96
2022-08-05T11:59:50.279Z,69.26
2022-08-05T12:00:44.210Z,69.16
2022-08-05T12:01:41.908Z,70.75
2022-08-05T12:02:40.870Z,68.57
2022-08-05T12:03:40.845Z,69.13
2022-08-05T12:04:40.766Z,68.17
2022-08-05T12:05:43.525Z,66.15
2022-08-05T12:06:40.731Z,66.39
2022-08-05T12:08:07.348Z,63.22
2022-08-05T12:08:49.936Z,63.23
2022-08-05T12:09:53.372Z,62.14
2022-08-05T12:10:46.084Z,61.45
2022-08-05T12:11:41.695Z,61.96
2022-08-05T12:12:55.408Z,62.29
2022-08-05T12:13:48.627Z,61.27
2022-08-05T12:14:40.696Z,60.52
2022-08-05T12:15:40.680Z,59.57
2022-08-05T12:16:40.691Z,60.41
2022-08-05T12:18:03.747Z,63.03
2022-08-05T12:18:42.743Z,64.48
2022-08-05T12:20:26.604Z,66.75
2022-08-05T12:20:41.642Z,67.74
2022-08-05T12:21:40.631Z,69.82
2022-08-05T12:22:40.629Z,70.28
2022-08-05T12:23:42.961Z,69.32
2022-08-05T12:24:40.624Z,68.24
2022-08-05T12:25:41.653Z,69.03
2022-08-05T12:26:44.076Z,69.56
2022-08-05T12:27:42.883Z,69.39
2022-08-05T12:28:41.646Z,69.29
2022-08-05T12:29:40.589Z,72.54
2022-08-05T12:30:45.915Z,71.51
2022-08-05T12:31:48.295Z,74.60
2022-08-05T12:32:41.595Z,74.71
2022-08-05T12:33:40.624Z,74.84
2022-08-05T12:34:40.605Z,76.64
2022-08-05T12:35:40.569Z,75.10
2022-08-05T12:36:40.592Z,74.84
2022-08-05T12:37:40.554Z,75.64
2022-08-05T12:38:41.133Z,74.94
2022-08-05T12:39:40.611Z,76.04
2022-08-05T12:40:44.170Z,75.84
2022-08-05T12:41:43.941Z,75.01
2022-08-05T12:42:40.504Z,73.24
2022-08-05T12:43:40.515Z,71.12
2022-08-05T12:44:40.867Z,68.93
2022-08-05T12:45:48.402Z,67.27
2022-08-05T12:46:40.459Z,67.84
2022-08-05T12:47:43.529Z,66.97
2022-08-05T12:48:41.460Z,70.95
2022-08-05T12:50:05.336Z,71.32
2022-08-05T12:50:41.453Z,72.49
2022-08-05T12:52:13.976Z,74.81
2022-08-05T12:52:42.377Z,74.92
2022-08-05T12:53:40.514Z,76.62